Time;durP1;ratioP1;P1;durP2;ratioP2;P2;SDS_P1;SDS_P2;PMS_P1;PMS_P2;Temp;Humidity;BMP_temperature;BMP_pressure;BME280_temperature;BME280_humidity;BME280_pressure;Samples;Min_cycle;Max_cycle;Signal;HPM_P1;HPM_P2
2024/01/18 00:00:27;;;;;;;0.43;0.20;;;;;;;;;;5080767;28;20024;-79
2024/01/18 00:02:54;;;;;;;0.20;0.20;;;;;;;;;;5085627;28;20069;-79
2024/01/18 00:05:20;;;;;;;0.30;0.30;;;;;;;;;;5077756;28;20055;-79
2024/01/18 00:07:46;;;;;;;0.85;0.30;;;;;;;;;;5070589;28;20040;-80
2024/01/18 00:10:12;;;;;;;0.90;0.30;;;;;;;;;;5084855;28;20020;-80
2024/01/18 00:12:38;;;;;;;0.20;0.20;;;;;;;;;;5084457;28;20051;-77
2024/01/18 00:15:05;;;;;;;0.25;0.10;;;;;;;;;;5085282;28;20025;-79
2024/01/18 00:17:31;;;;;;;0.20;0.20;;;;;;;;;;5080275;28;20025;-78
2024/01/18 00:19:57;;;;;;;0.10;0.10;;;;;;;;;;5083750;28;20048;-80
2024/01/18 00:22:23;;;;;;;0.10;0.10;;;;;;;;;;5080380;28;20029;-80
2024/01/18 00:24:50;;;;;;;0.30;0.20;;;;;;;;;;5073459;28;20028;-79
2024/01/18 00:27:16;;;;;;;0.15;0.13;;;;;;;;;;5080419;28;20035;-79
2024/01/18 00:29:42;;;;;;;0.22;0.17;;;;;;;;;;5078093;28;20026;-78
2024/01/18 00:32:08;;;;;;;0.10;0.10;;;;;;;;;;5082181;28;20025;-80
2024/01/18 00:34:34;;;;;;;0.20;0.20;;;;;;;;;;5083108;28;20024;-79
2024/01/18 00:37:00;;;;;;;0.10;0.10;;;;;;;;;;5083208;28;20005;-78
2024/01/18 00:39:26;;;;;;;0.47;0.20;;;;;;;;;;5089585;28;20031;-78
2024/01/18 00:41:52;;;;;;;0.32;0.20;;;;;;;;;;5069389;28;20391;-80
2024/01/18 00:44:19;;;;;;;0.22;0.20;;;;;;;;;;5084839;28;20043;-79
2024/01/18 00:46:45;;;;;;;0.20;0.20;;;;;;;;;;5079703;28;20430;-79
2024/01/18 00:49:11;;;;;;;0.20;0.20;;;;;;;;;;5083154;28;20092;-80
2024/01/18 00:51:39;;;;;;;0.20;0.20;;;;;;;;;;5081345;28;20025;-80
2024/01/18 00:54:06;;;;;;;0.28;0.28;;;;;;;;;;5082970;28;20448;-79
2024/01/18 00:56:32;;;;;;;1.08;0.20;;;;;;;;;;5078717;28;20021;-78
2024/01/18 00:58:58;;;;;;;0.30;0.10;;;;;;;;;;5082492;28;20031;-78
2024/01/18 01:01:24;;;;;;;0.10;0.10;;;;;;;;;;5078468;28;20025;-78
2024/01/18 01:03:53;;;;;;;0.20;0.20;;;;;;;;;;5074051;28;20403;-77
2024/01/18 01:06:19;;;;;;;0.10;0.10;;;;;;;;;;5074697;28;20084;-79
2024/01/18 01:08:45;;;;;;;0.22;0.22;;;;;;;;;;5078867;28;20070;-78
2024/01/18 01:11:12;;;;;;;0.60;0.20;;;;;;;;;;5077296;28;20464;-79
2024/01/18 01:13:38;;;;;;;0.32;0.10;;;;;;;;;;5069546;28;20074;-79
2024/01/18 01:16:05;;;;;;;0.10;0.10;;;;;;;;;;5081507;28;20032;-78
2024/01/18 01:18:31;;;;;;;0.32;0.10;;;;;;;;;;5079036;28;20032;-80
2024/01/18 01:20:57;;;;;;;0.10;0.10;;;;;;;;;;5078138;28;20062;-80
2024/01/18 01:23:23;;;;;;;0.10;0.10;;;;;;;;;;5081360;28;20021;-78
2024/01/18 01:25:49;;;;;;;0.10;0.10;;;;;;;;;;5083190;28;20009;-79
2024/01/18 01:28:15;;;;;;;0.22;0.22;;;;;;;;;;5079441;28;20479;-80
2024/01/18 01:30:41;;;;;;;0.10;0.10;;;;;;;;;;5078686;28;20340;-79
2024/01/18 01:33:07;;;;;;;0.10;0.10;;;;;;;;;;5076665;28;20043;-77
2024/01/18 01:35:33;;;;;;;0.00;0.00;;;;;;;;;;5079728;28;20090;-79
2024/01/18 01:37:59;;;;;;;0.00;0.00;;;;;;;;;;5077352;28;20025;-79
2024/01/18 01:40:26;;;;;;;0.00;0.00;;;;;;;;;;5081198;28;20119;-78
2024/01/18 01:42:52;;;;;;;0.10;0.10;;;;;;;;;;5073213;28;20166;-78
2024/01/18 01:45:18;;;;;;;0.20;0.20;;;;;;;;;;5071053;28;20032;-78
2024/01/18 01:47:44;;;;;;;0.10;0.10;;;;;;;;;;5071042;28;20024;-79
2024/01/18 01:50:11;;;;;;;0.10;0.08;;;;;;;;;;5078616;28;20032;-78
2024/01/18 01:52:39;;;;;;;0.10;0.03;;;;;;;;;;5072828;28;20056;-78
2024/01/18 01:55:07;;;;;;;0.17;0.13;;;;;;;;;;5078995;28;20028;-79
2024/01/18 01:57:34;;;;;;;0.10;0.10;;;;;;;;;;5077137;28;20028;-77
2024/01/18 02:00:00;;;;;;;0.00;0.00;;;;;;;;;;5076550;28;20028;-79
2024/01/18 02:02:26;;;;;;;0.10;0.10;;;;;;;;;;5063391;28;20021;-76
2024/01/18 02:04:53;;;;;;;0.17;0.17;;;;;;;;;;5072714;28;20025;-76
2024/01/18 02:07:19;;;;;;;0.00;0.00;;;;;;;;;;5073112;28;20471;-77
2024/01/18 02:09:46;;;;;;;0.00;0.00;;;;;;;;;;5078767;28;20031;-77
2024/01/18 02:12:12;;;;;;;0.10;0.10;;;;;;;;;;5084097;28;20104;-79
2024/01/18 02:14:39;;;;;;;0.10;0.10;;;;;;;;;;5066991;28;20028;-77
2024/01/18 02:17:06;;;;;;;0.10;0.10;;;;;;;;;;5072970;28;20024;-78
2024/01/18 02:19:32;;;;;;;0.05;0.05;;;;;;;;;;5075181;28;20008;-78
2024/01/18 02:21:59;;;;;;;0.32;0.15;;;;;;;;;;5076257;28;20036;-79
2024/01/18 02:24:31;;;;;;;0.10;0.10;;;;;;;;;;5085843;28;20031;-77
2024/01/18 02:26:57;;;;;;;0.47;0.10;;;;;;;;;;5090457;28;20028;-78
2024/01/18 02:29:24;;;;;;;0.10;0.10;;;;;;;;;;5089563;28;20052;-79
2024/01/18 02:31:50;;;;;;;0.10;0.10;;;;;;;;;;5089684;28;20028;-78
2024/01/18 02:34:16;;;;;;;0.00;0.00;;;;;;;;;;5081217;28;20119;-77
2024/01/18 02:36:43;;;;;;;0.00;0.00;;;;;;;;;;5082725;28;20021;-81
2024/01/18 02:39:09;;;;;;;0.10;0.10;;;;;;;;;;5085252;28;20040;-78
2024/01/18 02:41:36;;;;;;;0.10;0.10;;;;;;;;;;5079266;28;20101;-76
2024/01/18 02:44:02;;;;;;;0.10;0.10;;;;;;;;;;5083602;28;20016;-77
2024/01/18 02:46:32;;;;;;;0.10;0.00;;;;;;;;;;5083208;28;20020;-77
2024/01/18 02:48:58;;;;;;;0.20;0.10;;;;;;;;;;5082398;28;20028;-77
2024/01/18 02:51:24;;;;;;;0.10;0.08;;;;;;;;;;5084507;28;20032;-77
2024/01/18 02:53:50;;;;;;;0.20;0.10;;;;;;;;;;5083530;28;20051;-77
2024/01/18 02:56:16;;;;;;;0.40;0.03;;;;;;;;;;5081333;28;20029;-76
2024/01/18 02:58:42;;;;;;;0.50;0.10;;;;;;;;;;5080793;28;20025;-77
2024/01/18 03:01:11;;;;;;;0.10;0.10;;;;;;;;;;5079051;28;20024;-78
2024/01/18 03:03:38;;;;;;;0.00;0.00;;;;;;;;;;5083716;28;20024;-78
2024/01/18 03:06:04;;;;;;;0.43;0.20;;;;;;;;;;5087237;28;20058;-77
2024/01/18 03:08:30;;;;;;;0.03;0.03;;;;;;;;;;5087137;28;20160;-75
2024/01/18 03:10:56;;;;;;;0.10;0.10;;;;;;;;;;5085431;28;20028;-76
2024/01/18 03:13:22;;;;;;;0.20;0.10;;;;;;;;;;5077028;28;20032;-77
2024/01/18 03:15:48;;;;;;;0.00;0.00;;;;;;;;;;5083411;28;20013;-77
2024/01/18 03:18:15;;;;;;;0.08;0.00;;;;;;;;;;5084498;28;20475;-77
2024/01/18 03:20:41;;;;;;;0.10;0.10;;;;;;;;;;5084072;28;20029;-79
2024/01/18 03:23:07;;;;;;;0.25;0.08;;;;;;;;;;5081162;28;20032;-79
2024/01/18 03:25:33;;;;;;;0.10;0.10;;;;;;;;;;5080772;28;20024;-78
2024/01/18 03:28:00;;;;;;;0.00;0.00;;;;;;;;;;5074156;28;20025;-79
2024/01/18 03:30:26;;;;;;;0.00;0.00;;;;;;;;;;5079083;28;20403;-75
2024/01/18 03:32:52;;;;;;;0.10;0.10;;;;;;;;;;5072591;28;20032;-77
2024/01/18 03:35:18;;;;;;;0.10;0.10;;;;;;;;;;5084273;28;20020;-79
2024/01/18 03:37:45;;;;;;;0.00;0.00;;;;;;;;;;5084777;28;20017;-76
2024/01/18 03:40:11;;;;;;;0.15;0.08;;;;;;;;;;5087780;28;20084;-77
2024/01/18 03:42:43;;;;;;;0.00;0.00;;;;;;;;;;5084050;28;20122;-76
2024/01/18 03:45:10;;;;;;;0.10;0.10;;;;;;;;;;5086511;28;20016;-75
2024/01/18 03:47:36;;;;;;;0.08;0.03;;;;;;;;;;5084077;28;20040;-79
2024/01/18 03:50:03;;;;;;;0.05;0.05;;;;;;;;;;5070565;28;20020;-78
2024/01/18 03:52:29;;;;;;;0.15;0.08;;;;;;;;;;5084499;28;20032;-77
2024/01/18 03:54:55;;;;;;;0.20;0.10;;;;;;;;;;5086578;28;20024;-77
2024/01/18 03:57:21;;;;;;;0.00;0.00;;;;;;;;;;5074083;28;20053;-78
2024/01/18 03:59:47;;;;;;;0.20;0.10;;;;;;;;;;5073577;28;20069;-78
2024/01/18 04:02:15;;;;;;;0.10;0.10;;;;;;;;;;5078595;28;20047;-79
2024/01/18 04:04:41;;;;;;;0.10;0.10;;;;;;;;;;5082781;28;20028;-78
2024/01/18 04:07:07;;;;;;;0.55;0.00;;;;;;;;;;5075571;28;20028;-78
2024/01/18 04:09:33;;;;;;;0.00;0.00;;;;;;;;;;5071603;28;20020;-78
2024/01/18 04:12:00;;;;;;;0.00;0.00;;;;;;;;;;5077560;28;20021;-79
2024/01/18 04:14:26;;;;;;;0.20;0.17;;;;;;;;;;5069401;28;20112;-79
2024/01/18 04:16:52;;;;;;;0.32;0.10;;;;;;;;;;5069354;28;20017;-74
2024/01/18 04:19:18;;;;;;;0.00;0.00;;;;;;;;;;5062197;28;20021;-74
2024/01/18 04:21:44;;;;;;;0.00;0.00;;;;;;;;;;5077240;28;20034;-74
2024/01/18 04:24:11;;;;;;;0.00;0.00;;;;;;;;;;5074135;28;20028;-75
2024/01/18 04:26:39;;;;;;;0.00;0.00;;;;;;;;;;5075936;28;20020;-75
2024/01/18 04:29:05;;;;;;;0.00;0.00;;;;;;;;;;5071990;28;20037;-74
2024/01/18 04:31:32;;;;;;;0.10;0.10;;;;;;;;;;5077487;28;20028;-75
2024/01/18 04:33:58;;;;;;;0.10;0.10;;;;;;;;;;5074913;28;20490;-74
2024/01/18 04:36:24;;;;;;;0.10;0.10;;;;;;;;;;5089461;28;20183;-75
2024/01/18 04:38:51;;;;;;;0.20;0.20;;;;;;;;;;5092025;28;20532;-75
2024/01/18 04:41:17;;;;;;;0.30;0.10;;;;;;;;;;5074176;28;20016;-75
2024/01/18 04:43:44;;;;;;;0.45;0.10;;;;;;;;;;5079710;28;20033;-76
2024/01/18 04:46:10;;;;;;;0.10;0.10;;;;;;;;;;5082535;28;20028;-75
2024/01/18 04:48:37;;;;;;;0.00;0.00;;;;;;;;;;5079848;28;20024;-75
2024/01/18 04:51:04;;;;;;;0.10;0.10;;;;;;;;;;5080712;28;20096;-78
2024/01/18 04:53:30;;;;;;;0.28;0.10;;;;;;;;;;5086785;28;20077;-77
2024/01/18 04:55:56;;;;;;;0.10;0.08;;;;;;;;;;5083182;28;20020;-79
2024/01/18 04:58:32;;;;;;;0.10;0.10;;;;;;;;;;5079798;28;20028;-78
2024/01/18 05:00:58;;;;;;;0.00;0.00;;;;;;;;;;5078741;28;20024;-76
2024/01/18 05:03:25;;;;;;;0.10;0.10;;;;;;;;;;5076370;28;20040;-76
2024/01/18 05:05:51;;;;;;;0.10;0.10;;;;;;;;;;5079358;28;20074;-77
2024/01/18 05:08:17;;;;;;;0.10;0.10;;;;;;;;;;5079626;28;20070;-76
2024/01/18 05:10:43;;;;;;;0.10;0.10;;;;;;;;;;5076624;28;20067;-77
2024/01/18 05:13:10;;;;;;;0.10;0.10;;;;;;;;;;5087022;28;20465;-78
2024/01/18 05:15:36;;;;;;;1.13;0.10;;;;;;;;;;5082137;28;20103;-77
2024/01/18 05:18:03;;;;;;;0.45;0.20;;;;;;;;;;5083433;28;20050;-77
2024/01/18 05:20:29;;;;;;;0.35;0.20;;;;;;;;;;5071401;28;20096;-79
2024/01/18 05:22:55;;;;;;;0.28;0.10;;;;;;;;;;5069290;28;20069;-78
2024/01/18 05:25:21;;;;;;;0.10;0.10;;;;;;;;;;5079484;28;20029;-79
2024/01/18 05:27:49;;;;;;;0.10;0.00;;;;;;;;;;5065822;28;20063;-78
2024/01/18 05:30:15;;;;;;;0.10;0.10;;;;;;;;;;5075992;28;20027;-78
2024/01/18 05:32:41;;;;;;;0.20;0.20;;;;;;;;;;5073138;28;20037;-79
2024/01/18 05:35:07;;;;;;;0.00;0.00;;;;;;;;;;5079527;28;20021;-78
2024/01/18 05:37:33;;;;;;;0.10;0.10;;;;;;;;;;5078452;28;20016;-79
2024/01/18 05:40:00;;;;;;;0.20;0.10;;;;;;;;;;5074249;28;20044;-78
2024/01/18 05:42:27;;;;;;;0.08;0.08;;;;;;;;;;5075652;28;20047;-78
2024/01/18 05:44:53;;;;;;;0.20;0.20;;;;;;;;;;5071004;28;20029;-78
2024/01/18 05:47:22;;;;;;;0.28;0.20;;;;;;;;;;5075428;28;20055;-77
2024/01/18 05:49:48;;;;;;;0.35;0.15;;;;;;;;;;5071225;28;20071;-79
2024/01/18 05:52:15;;;;;;;0.10;0.10;;;;;;;;;;5079144;28;20024;-79
2024/01/18 05:54:42;;;;;;;0.00;0.00;;;;;;;;;;5074651;28;20021;-77
2024/01/18 05:57:08;;;;;;;0.10;0.10;;;;;;;;;;5080469;28;20386;-76
2024/01/18 05:59:34;;;;;;;0.08;0.08;;;;;;;;;;5062242;28;20027;-79
2024/01/18 06:02:00;;;;;;;0.20;0.20;;;;;;;;;;5077493;28;20029;-79
2024/01/18 06:04:29;;;;;;;0.10;0.10;;;;;;;;;;5079863;28;20021;-77
2024/01/18 06:06:57;;;;;;;0.13;0.00;;;;;;;;;;5066363;28;20390;-78
2024/01/18 06:12:15;;;;;;;0.25;0.25;;;;;;;;;;5076317;28;20111;-76
2024/01/18 06:15:04;;;;;;;0.10;0.10;;;;;;;;;;5083307;28;20032;-77
2024/01/18 06:17:30;;;;;;;0.00;0.00;;;;;;;;;;5072839;28;20033;-78
2024/01/18 06:19:56;;;;;;;0.00;0.00;;;;;;;;;;5062253;28;20017;-78
2024/01/18 06:22:22;;;;;;;0.13;0.10;;;;;;;;;;5069094;28;20376;-77
2024/01/18 06:24:49;;;;;;;0.17;0.17;;;;;;;;;;5088356;28;20034;-77
2024/01/18 06:27:16;;;;;;;0.35;0.10;;;;;;;;;;5081376;28;20029;-78
2024/01/18 06:29:43;;;;;;;0.30;0.20;;;;;;;;;;5063428;28;20443;-77
2024/01/18 06:32:10;;;;;;;0.10;0.10;;;;;;;;;;5061594;28;20044;-78
2024/01/18 06:34:36;;;;;;;0.40;0.20;;;;;;;;;;5065578;28;20024;-77
2024/01/18 06:37:02;;;;;;;0.15;0.15;;;;;;;;;;5081468;28;20028;-77
2024/01/18 06:39:28;;;;;;;0.75;0.35;;;;;;;;;;5083918;28;20459;-78
2024/01/18 06:41:55;;;;;;;0.30;0.20;;;;;;;;;;5093482;28;20013;-77
2024/01/18 06:44:21;;;;;;;0.30;0.30;;;;;;;;;;5094586;28;20016;-78
2024/01/18 06:46:47;;;;;;;0.30;0.30;;;;;;;;;;5106408;28;20042;-79
2024/01/18 06:49:13;;;;;;;0.50;0.20;;;;;;;;;;5067495;28;20084;-79
2024/01/18 06:51:39;;;;;;;0.35;0.30;;;;;;;;;;5079291;28;20024;-79
2024/01/18 06:54:05;;;;;;;0.32;0.30;;;;;;;;;;5069558;28;20017;-78
2024/01/18 06:56:31;;;;;;;0.30;0.30;;;;;;;;;;5086752;28;20032;-79
2024/01/18 06:58:57;;;;;;;0.30;0.30;;;;;;;;;;5071408;28;20122;-78
2024/01/18 07:01:23;;;;;;;0.30;0.30;;;;;;;;;;5067842;28;20021;-76
2024/01/18 07:03:49;;;;;;;0.40;0.35;;;;;;;;;;5054267;28;20074;-77
2024/01/18 07:06:16;;;;;;;0.60;0.25;;;;;;;;;;5064360;28;20054;-77
2024/01/18 07:08:42;;;;;;;0.20;0.20;;;;;;;;;;5064423;28;20073;-76
2024/01/18 07:11:08;;;;;;;0.20;0.20;;;;;;;;;;5074822;28;20035;-78
2024/01/18 07:13:34;;;;;;;0.20;0.20;;;;;;;;;;5074509;28;20540;-76
2024/01/18 07:16:00;;;;;;;0.43;0.35;;;;;;;;;;5058817;28;20086;-76
2024/01/18 07:18:26;;;;;;;0.22;0.22;;;;;;;;;;5073749;28;20017;-76
2024/01/18 07:20:53;;;;;;;0.40;0.30;;;;;;;;;;5059329;28;20024;-78
2024/01/18 07:23:19;;;;;;;0.45;0.35;;;;;;;;;;5055879;28;20021;-76
2024/01/18 07:25:45;;;;;;;0.40;0.40;;;;;;;;;;5063593;28;20468;-77
2024/01/18 07:28:11;;;;;;;0.40;0.40;;;;;;;;;;5069350;28;20032;-76
2024/01/18 07:30:37;;;;;;;0.35;0.35;;;;;;;;;;5062081;28;20017;-76
2024/01/18 07:33:03;;;;;;;0.28;0.28;;;;;;;;;;5054388;28;20200;-76
2024/01/18 07:35:30;;;;;;;0.20;0.20;;;;;;;;;;5062131;28;20025;-76
2024/01/18 07:37:56;;;;;;;0.30;0.30;;;;;;;;;;5063177;28;20086;-78
2024/01/18 07:40:22;;;;;;;0.40;0.40;;;;;;;;;;5069421;28;20017;-77
2024/01/18 07:42:48;;;;;;;0.40;0.40;;;;;;;;;;5070608;28;20036;-76
2024/01/18 07:45:16;;;;;;;0.22;0.22;;;;;;;;;;5058789;28;20051;-77
2024/01/18 07:47:44;;;;;;;0.20;0.20;;;;;;;;;;5074012;28;20046;-77
2024/01/18 07:50:10;;;;;;;0.15;0.15;;;;;;;;;;5059052;28;20051;-77
2024/01/18 07:52:37;;;;;;;0.25;0.25;;;;;;;;;;5056056;28;20021;-78
2024/01/18 07:55:05;;;;;;;0.20;0.20;;;;;;;;;;5054589;28;20017;-77
2024/01/18 07:57:31;;;;;;;0.20;0.20;;;;;;;;;;5059275;28;20035;-74
2024/01/18 07:59:57;;;;;;;0.20;0.20;;;;;;;;;;5061469;28;20040;-77
2024/01/18 08:02:24;;;;;;;0.55;0.20;;;;;;;;;;5066733;28;20032;-77
2024/01/18 08:04:50;;;;;;;0.55;0.30;;;;;;;;;;5060114;28;20136;-77
2024/01/18 08:07:16;;;;;;;0.22;0.22;;;;;;;;;;5068768;28;20039;-77
2024/01/18 08:09:42;;;;;;;0.50;0.32;;;;;;;;;;5069663;28;20090;-77
2024/01/18 08:12:08;;;;;;;0.30;0.22;;;;;;;;;;5080987;28;20035;-76
2024/01/18 08:14:40;;;;;;;0.22;0.22;;;;;;;;;;5075421;28;20108;-77
2024/01/18 08:17:06;;;;;;;0.43;0.32;;;;;;;;;;5066028;28;20111;-77
2024/01/18 08:19:32;;;;;;;0.25;0.25;;;;;;;;;;5073936;28;20432;-77
2024/01/18 08:21:58;;;;;;;0.30;0.30;;;;;;;;;;5092108;28;20032;-75
2024/01/18 08:24:24;;;;;;;0.30;0.30;;;;;;;;;;5077654;28;20076;-74
2024/01/18 08:26:51;;;;;;;0.50;0.40;;;;;;;;;;5074048;28;20343;-75
2024/01/18 08:29:17;;;;;;;0.43;0.43;;;;;;;;;;5078233;28;20390;-75
2024/01/18 08:31:43;;;;;;;0.40;0.35;;;;;;;;;;5075633;28;20039;-77
2024/01/18 08:34:10;;;;;;;0.75;0.43;;;;;;;;;;5071221;28;20033;-75
2024/01/18 08:36:37;;;;;;;0.73;0.70;;;;;;;;;;5078188;28;20391;-76
2024/01/18 08:39:03;;;;;;;0.30;0.30;;;;;;;;;;5078101;28;20038;-75
2024/01/18 08:41:29;;;;;;;0.50;0.50;;;;;;;;;;5079007;28;20017;-77
2024/01/18 08:43:55;;;;;;;0.40;0.40;;;;;;;;;;5081285;28;20032;-76
2024/01/18 08:46:21;;;;;;;0.40;0.40;;;;;;;;;;5078684;28;20025;-78
2024/01/18 08:48:48;;;;;;;0.50;0.50;;;;;;;;;;5078889;28;20058;-78
2024/01/18 08:51:14;;;;;;;0.30;0.30;;;;;;;;;;5068778;28;20036;-77
2024/01/18 08:53:41;;;;;;;0.77;0.28;;;;;;;;;;5070668;28;20021;-76
2024/01/18 08:56:08;;;;;;;0.63;0.47;;;;;;;;;;5058814;28;20127;-76
2024/01/18 08:58:34;;;;;;;0.10;0.10;;;;;;;;;;5074547;28;20074;-77
2024/01/18 09:01:00;;;;;;;0.57;0.40;;;;;;;;;;5076394;28;20074;-76
2024/01/18 09:03:27;;;;;;;0.40;0.30;;;;;;;;;;5087038;28;20004;-77
2024/01/18 09:05:53;;;;;;;0.65;0.30;;;;;;;;;;5068913;28;20029;-77
2024/01/18 09:08:19;;;;;;;0.20;0.20;;;;;;;;;;5069437;28;20099;-77
2024/01/18 09:10:46;;;;;;;0.10;0.10;;;;;;;;;;5078706;28;20476;-77
2024/01/18 09:13:12;;;;;;;0.40;0.40;;;;;;;;;;5074368;28;20040;-76
2024/01/18 09:15:38;;;;;;;0.20;0.20;;;;;;;;;;5072176;28;20021;-78
2024/01/18 09:18:04;;;;;;;0.30;0.30;;;;;;;;;;5069884;28;20089;-75
2024/01/18 09:20:38;;;;;;;0.28;0.28;;;;;;;;;;5069019;28;20020;-77
2024/01/18 09:23:04;;;;;;;0.43;0.40;;;;;;;;;;5058241;28;20071;-76
2024/01/18 09:25:30;;;;;;;0.40;0.35;;;;;;;;;;5056293;28;20078;-77
2024/01/18 09:27:57;;;;;;;1.00;0.55;;;;;;;;;;5058810;28;20048;-77
2024/01/18 09:30:23;;;;;;;0.73;0.60;;;;;;;;;;5062802;28;20345;-77
2024/01/18 09:32:49;;;;;;;0.98;0.70;;;;;;;;;;5071471;28;20138;-77
2024/01/18 09:35:16;;;;;;;0.88;0.63;;;;;;;;;;5065333;28;20028;-76
2024/01/18 09:37:42;;;;;;;0.40;0.40;;;;;;;;;;5068617;28;20084;-78
2024/01/18 09:40:11;;;;;;;0.85;0.55;;;;;;;;;;5080632;28;20020;-77
2024/01/18 09:42:39;;;;;;;1.13;0.65;;;;;;;;;;5071912;28;20052;-78
2024/01/18 09:45:09;;;;;;;0.80;0.70;;;;;;;;;;5062405;28;20096;-79
2024/01/18 09:47:36;;;;;;;0.75;0.63;;;;;;;;;;5060512;28;20020;-77
2024/01/18 09:50:03;;;;;;;0.95;0.70;;;;;;;;;;5060173;28;20080;-77
2024/01/18 09:52:29;;;;;;;1.00;0.70;;;;;;;;;;5077984;28;20047;-76
2024/01/18 09:54:55;;;;;;;0.60;0.50;;;;;;;;;;5061092;28;20029;-76
2024/01/18 09:57:29;;;;;;;0.75;0.70;;;;;;;;;;5060282;28;20021;-78
2024/01/18 09:59:58;;;;;;;0.30;0.30;;;;;;;;;;5077225;28;20395;-77
2024/01/18 10:02:25;;;;;;;1.23;0.47;;;;;;;;;;5076493;28;20059;-78
2024/01/18 10:04:53;;;;;;;1.33;0.65;;;;;;;;;;5069877;28;20096;-77
2024/01/18 10:07:20;;;;;;;0.90;0.65;;;;;;;;;;5065235;28;20078;-77
2024/01/18 10:09:47;;;;;;;0.85;0.80;;;;;;;;;;5071102;28;20025;-77
2024/01/18 10:12:13;;;;;;;0.50;0.50;;;;;;;;;;5082303;28;20020;-76
2024/01/18 10:14:43;;;;;;;0.80;0.70;;;;;;;;;;5073499;28;20021;-77
2024/01/18 10:17:10;;;;;;;0.60;0.60;;;;;;;;;;5078641;28;20074;-77
2024/01/18 10:19:36;;;;;;;0.60;0.60;;;;;;;;;;5063304;28;20033;-78
2024/01/18 10:22:04;;;;;;;0.65;0.50;;;;;;;;;;5061860;28;20066;-76
2024/01/18 10:24:30;;;;;;;0.50;0.32;;;;;;;;;;5076466;28;20021;-78
2024/01/18 10:27:03;;;;;;;0.43;0.32;;;;;;;;;;5059385;28;20032;-79
2024/01/18 10:29:35;;;;;;;1.05;0.43;;;;;;;;;;5055946;28;20104;-76
2024/01/18 10:32:02;;;;;;;0.40;0.40;;;;;;;;;;5055297;28;20132;-77
2024/01/18 10:34:28;;;;;;;0.40;0.40;;;;;;;;;;5059280;28;20086;-77
2024/01/18 10:36:55;;;;;;;0.85;0.38;;;;;;;;;;5059226;28;20399;-77
2024/01/18 10:39:21;;;;;;;0.40;0.32;;;;;;;;;;5070768;28;20086;-77
2024/01/18 10:41:47;;;;;;;0.20;0.20;;;;;;;;;;5058308;28;20133;-76
2024/01/18 10:44:14;;;;;;;0.63;0.57;;;;;;;;;;5067515;28;20151;-76
2024/01/18 10:46:42;;;;;;;0.20;0.20;;;;;;;;;;5074859;28;20029;-76
2024/01/18 10:49:08;;;;;;;0.40;0.40;;;;;;;;;;5064749;28;20020;-74
2024/01/18 10:51:37;;;;;;;0.38;0.38;;;;;;;;;;5074365;28;20085;-76
2024/01/18 10:54:03;;;;;;;0.80;0.47;;;;;;;;;;5077222;28;20025;-76
2024/01/18 10:56:29;;;;;;;0.63;0.60;;;;;;;;;;5078594;28;20024;-77
2024/01/18 10:58:56;;;;;;;0.95;0.40;;;;;;;;;;5099086;28;20028;-76
2024/01/18 11:01:22;;;;;;;0.45;0.30;;;;;;;;;;5080264;28;20008;-77
2024/01/18 11:03:49;;;;;;;0.70;0.45;;;;;;;;;;5074135;28;20016;-76
2024/01/18 11:06:15;;;;;;;1.45;0.65;;;;;;;;;;5077026;28;20083;-76
2024/01/18 11:08:42;;;;;;;0.50;0.50;;;;;;;;;;5071819;28;20051;-77
2024/01/18 11:11:08;;;;;;;0.52;0.50;;;;;;;;;;5074472;28;20103;-76
2024/01/18 11:13:35;;;;;;;2.15;0.40;;;;;;;;;;5059522;28;20032;-76
2024/01/18 11:16:01;;;;;;;0.45;0.45;;;;;;;;;;5066568;28;20024;-76
2024/01/18 11:18:32;;;;;;;0.32;0.32;;;;;;;;;;5054823;28;20029;-77
2024/01/18 11:21:04;;;;;;;0.30;0.30;;;;;;;;;;5055056;28;20028;-78
2024/01/18 11:23:34;;;;;;;0.28;0.28;;;;;;;;;;5055134;28;20102;-76
2024/01/18 11:26:00;;;;;;;0.25;0.22;;;;;;;;;;5074761;28;20028;-77
2024/01/18 11:28:27;;;;;;;1.65;0.50;;;;;;;;;;5059012;28;20029;-76
2024/01/18 11:30:53;;;;;;;0.55;0.38;;;;;;;;;;5052279;28;20029;-76
2024/01/18 11:33:22;;;;;;;0.30;0.30;;;;;;;;;;5053367;28;20033;-76
2024/01/18 11:35:49;;;;;;;0.38;0.30;;;;;;;;;;5071999;28;20020;-76
2024/01/18 11:38:24;;;;;;;0.75;0.40;;;;;;;;;;5065541;28;20457;-76
2024/01/18 11:40:53;;;;;;;1.80;0.30;;;;;;;;;;5071161;28;20020;-77
2024/01/18 11:43:21;;;;;;;1.75;0.30;;;;;;;;;;5068572;28;20105;-76
2024/01/18 11:45:50;;;;;;;0.35;0.35;;;;;;;;;;5070476;28;20030;-76
2024/01/18 11:48:17;;;;;;;1.65;0.60;;;;;;;;;;5061185;28;20052;-76
2024/01/18 11:50:43;;;;;;;0.70;0.40;;;;;;;;;;5055511;28;20364;-76
2024/01/18 11:53:11;;;;;;;0.95;0.40;;;;;;;;;;5053891;28;20459;-77
2024/01/18 11:55:38;;;;;;;0.20;0.20;;;;;;;;;;5061935;28;20032;-76
2024/01/18 11:58:04;;;;;;;0.38;0.30;;;;;;;;;;5066525;28;20040;-77
2024/01/18 12:00:33;;;;;;;0.40;0.40;;;;;;;;;;5060153;28;20021;-77
2024/01/18 12:03:03;;;;;;;0.55;0.55;;;;;;;;;;5056311;28;20028;-77
2024/01/18 12:05:29;;;;;;;0.40;0.40;;;;;;;;;;5063692;28;20059;-77
2024/01/18 12:07:56;;;;;;;0.57;0.30;;;;;;;;;;5074171;28;20084;-77
2024/01/18 12:10:23;;;;;;;2.60;0.60;;;;;;;;;;5068226;28;20029;-76
2024/01/18 12:12:50;;;;;;;0.60;0.57;;;;;;;;;;5071039;28;20024;-75
2024/01/18 12:15:20;;;;;;;0.52;0.40;;;;;;;;;;5069842;28;20017;-76
2024/01/18 12:17:47;;;;;;;1.33;0.40;;;;;;;;;;5084470;28;20052;-77
2024/01/18 12:20:17;;;;;;;0.85;0.47;;;;;;;;;;5054737;28;20020;-77
2024/01/18 12:22:43;;;;;;;0.40;0.40;;;;;;;;;;5054861;28;20056;-77
2024/01/18 12:25:10;;;;;;;0.40;0.40;;;;;;;;;;5056443;28;20028;-78
2024/01/18 12:27:36;;;;;;;0.80;0.63;;;;;;;;;;5071886;28;20029;-77
2024/01/18 12:30:04;;;;;;;1.13;0.57;;;;;;;;;;5054106;28;20096;-76
2024/01/18 12:32:32;;;;;;;0.50;0.50;;;;;;;;;;5061299;28;20047;-77
2024/01/18 12:34:59;;;;;;;0.47;0.40;;;;;;;;;;5055560;28;20025;-77
2024/01/18 12:37:25;;;;;;;0.50;0.50;;;;;;;;;;5063085;28;20020;-77
2024/01/18 12:39:52;;;;;;;0.65;0.50;;;;;;;;;;5075615;28;20028;-78
2024/01/18 12:42:18;;;;;;;0.95;0.30;;;;;;;;;;5070547;28;20507;-77
2024/01/18 12:44:44;;;;;;;0.77;0.40;;;;;;;;;;5065692;28;20029;-76
2024/01/18 12:47:10;;;;;;;0.30;0.30;;;;;;;;;;5072312;28;20044;-78
2024/01/18 12:49:36;;;;;;;1.00;0.30;;;;;;;;;;5079802;28;20025;-76
2024/01/18 12:52:05;;;;;;;1.75;0.60;;;;;;;;;;5059109;28;20025;-78
2024/01/18 12:54:31;;;;;;;1.08;0.65;;;;;;;;;;5061362;28;20052;-76
2024/01/18 12:57:04;;;;;;;2.15;0.40;;;;;;;;;;5075933;28;20016;-76
2024/01/18 12:59:30;;;;;;;1.38;0.40;;;;;;;;;;5072418;28;20017;-76
2024/01/18 13:01:57;;;;;;;0.43;0.30;;;;;;;;;;5053845;28;20033;-78
2024/01/18 13:04:25;;;;;;;0.70;0.43;;;;;;;;;;5060900;28;20020;-76
2024/01/18 13:06:52;;;;;;;0.40;0.40;;;;;;;;;;5069384;28;20391;-76
2024/01/18 13:09:22;;;;;;;0.40;0.40;;;;;;;;;;5087295;28;20115;-76
2024/01/18 13:11:49;;;;;;;0.68;0.20;;;;;;;;;;5076212;28;20086;-76
2024/01/18 13:14:18;;;;;;;0.47;0.38;;;;;;;;;;5056459;28;20017;-76
2024/01/18 13:16:47;;;;;;;0.20;0.20;;;;;;;;;;5058485;28;20052;-77
2024/01/18 13:19:16;;;;;;;0.20;0.10;;;;;;;;;;5074665;28;20059;-77
2024/01/18 13:21:43;;;;;;;0.35;0.20;;;;;;;;;;5059760;28;20037;-76
2024/01/18 13:24:09;;;;;;;0.65;0.65;;;;;;;;;;5058956;28;20017;-77
2024/01/18 13:26:36;;;;;;;0.57;0.40;;;;;;;;;;5056901;28;20108;-77
2024/01/18 13:29:03;;;;;;;1.45;0.60;;;;;;;;;;5077067;28;20028;-77
2024/01/18 13:31:30;;;;;;;0.65;0.30;;;;;;;;;;5075130;28;20036;-77
2024/01/18 13:33:56;;;;;;;1.23;0.77;;;;;;;;;;5060311;28;20036;-76
2024/01/18 13:36:22;;;;;;;1.02;0.90;;;;;;;;;;5076434;28;20024;-76
2024/01/18 13:38:48;;;;;;;1.38;0.70;;;;;;;;;;5075402;28;20028;-77
2024/01/18 13:41:14;;;;;;;1.70;0.50;;;;;;;;;;5071681;28;20028;-77
2024/01/18 13:43:40;;;;;;;0.43;0.43;;;;;;;;;;5057397;28;20052;-76
2024/01/18 13:46:06;;;;;;;0.40;0.20;;;;;;;;;;5057392;28;20023;-77
2024/01/18 13:48:33;;;;;;;0.50;0.25;;;;;;;;;;5065458;28;20017;-77
2024/01/18 13:50:59;;;;;;;0.20;0.20;;;;;;;;;;5079434;28;20032;-77
2024/01/18 13:53:25;;;;;;;0.13;0.13;;;;;;;;;;5064578;28;20053;-76
2024/01/18 13:55:53;;;;;;;0.93;0.30;;;;;;;;;;5054209;28;20032;-77
2024/01/18 13:58:19;;;;;;;0.40;0.40;;;;;;;;;;5055174;28;20029;-76
2024/01/18 14:00:45;;;;;;;0.52;0.30;;;;;;;;;;5070722;28;20060;-78
2024/01/18 14:03:13;;;;;;;0.57;0.28;;;;;;;;;;5060704;28;20032;-78
2024/01/18 14:05:40;;;;;;;0.60;0.47;;;;;;;;;;5060179;28;20025;-77
2024/01/18 14:08:06;;;;;;;0.20;0.20;;;;;;;;;;5071802;28;20095;-77
2024/01/18 14:10:33;;;;;;;0.20;0.20;;;;;;;;;;5078377;28;20897;-78
2024/01/18 14:13:03;;;;;;;0.65;0.32;;;;;;;;;;5078194;28;20013;-78
2024/01/18 14:15:30;;;;;;;2.83;0.30;;;;;;;;;;5076354;28;20065;-78
2024/01/18 14:17:56;;;;;;;0.88;0.30;;;;;;;;;;5059571;28;20013;-77
2024/01/18 14:20:22;;;;;;;0.30;0.30;;;;;;;;;;5069443;28;20031;-77
2024/01/18 14:22:49;;;;;;;0.90;0.40;;;;;;;;;;5088141;28;20088;-77
2024/01/18 14:25:15;;;;;;;1.85;1.05;;;;;;;;;;5069137;28;20021;-78
2024/01/18 14:27:41;;;;;;;0.22;0.22;;;;;;;;;;5059126;28;20024;-77
2024/01/18 14:30:08;;;;;;;0.40;0.22;;;;;;;;;;5065990;28;20075;-77
2024/01/18 14:32:35;;;;;;;2.88;0.40;;;;;;;;;;5073599;28;20033;-77
2024/01/18 14:35:01;;;;;;;0.70;0.28;;;;;;;;;;5075883;28;20020;-77
2024/01/18 14:37:27;;;;;;;1.48;0.40;;;;;;;;;;5063681;28;20047;-77
2024/01/18 14:39:53;;;;;;;0.52;0.52;;;;;;;;;;5083843;28;20024;-76
2024/01/18 14:42:19;;;;;;;0.13;0.13;;;;;;;;;;5075465;28;20029;-77